sensor_id;sensor_type;location;lat;lon;timestamp;temperature;humidity
4910;DHT22;2470;49.868;8.660;2023-07-31T00:01:48;19.60;99.90
4910;DHT22;2470;49.868;8.660;2023-07-31T00:04:13;19.60;99.90
4910;DHT22;2470;49.868;8.660;2023-07-31T00:06:38;19.50;99.90
4910;DHT22;2470;49.868;8.660;2023-07-31T00:09:04;19.60;99.90
4910;DHT22;2470;49.868;8.660;2023-07-31T00:11:29;19.60;99.90
4910;DHT22;2470;49.868;8.660;2023-07-31T00:13:55;19.50;99.90
4910;DHT22;2470;49.868;8.660;2023-07-31T00:16:21;19.60;99.90
4910;DHT22;2470;49.868;8.660;2023-07-31T00:18:46;19.60;99.90
4910;DHT22;2470;49.868;8.660;2023-07-31T00:21:12;19.50;99.90
4910;DHT22;2470;49.868;8.660;2023-07-31T00:23:37;19.50;99.90
4910;DHT22;2470;49.868;8.660;2023-07-31T00:26:03;19.50;99.90
4910;DHT22;2470;49.868;8.660;2023-07-31T00:28:28;19.50;99.90
4910;DHT22;2470;49.868;8.660;2023-07-31T00:30:54;19.50;99.90
4910;DHT22;2470;49.868;8.660;2023-07-31T00:33:20;19.50;99.90
4910;DHT22;2470;49.868;8.660;2023-07-31T00:35:45;19.50;99.90
4910;DHT22;2470;49.868;8.660;2023-07-31T00:38:11;19.50;99.90
4910;DHT22;2470;49.868;8.660;2023-07-31T00:40:37;19.50;99.90
4910;DHT22;2470;49.868;8.660;2023-07-31T00:43:03;19.50;99.90
4910;DHT22;2470;49.868;8.660;2023-07-31T00:45:28;19.50;99.90
4910;DHT22;2470;49.868;8.660;2023-07-31T00:47:54;19.60;99.90
4910;DHT22;2470;49.868;8.660;2023-07-31T00:50:21;19.60;99.90
4910;DHT22;2470;49.868;8.660;2023-07-31T00:52:47;19.60;99.90
4910;DHT22;2470;49.868;8.660;2023-07-31T00:55:13;19.60;99.90
4910;DHT22;2470;49.868;8.660;2023-07-31T00:57:41;19.60;99.90
4910;DHT22;2470;49.868;8.660;2023-07-31T01:00:07;19.50;99.90
4910;DHT22;2470;49.868;8.660;2023-07-31T01:02:33;19.50;99.90
4910;DHT22;2470;49.868;8.660;2023-07-31T01:04:59;19.60;99.90
4910;DHT22;2470;49.868;8.660;2023-07-31T01:10:16;19.60;99.90
4910;DHT22;2470;49.868;8.660;2023-07-31T01:12:45;19.60;99.90
4910;DHT22;2470;49.868;8.660;2023-07-31T01:15:12;19.60;99.90
4910;DHT22;2470;49.868;8.660;2023-07-31T01:17:38;19.50;99.90
4910;DHT22;2470;49.868;8.660;2023-07-31T01:20:08;19.60;99.90
4910;DHT22;2470;49.868;8.660;2023-07-31T01:28:49;19.70;99.90
4910;DHT22;2470;49.868;8.660;2023-07-31T01:31:21;19.70;99.90
4910;DHT22;2470;49.868;8.660;2023-07-31T01:33:49;19.70;99.90
4910;DHT22;2470;49.868;8.660;2023-07-31T01:36:15;19.70;99.90
4910;DHT22;2470;49.868;8.660;2023-07-31T01:38:41;19.60;99.90
4910;DHT22;2470;49.868;8.660;2023-07-31T01:41:06;19.60;99.90
4910;DHT22;2470;49.868;8.660;2023-07-31T01:43:32;19.60;99.90
4910;DHT22;2470;49.868;8.660;2023-07-31T01:45:57;19.70;99.90
4910;DHT22;2470;49.868;8.660;2023-07-31T01:48:23;19.60;99.90
4910;DHT22;2470;49.868;8.660;2023-07-31T01:50:48;19.60;99.90
4910;DHT22;2470;49.868;8.660;2023-07-31T01:53:14;19.60;99.90
4910;DHT22;2470;49.868;8.660;2023-07-31T01:55:39;19.50;99.90
4910;DHT22;2470;49.868;8.660;2023-07-31T01:58:05;19.50;99.90
4910;DHT22;2470;49.868;8.660;2023-07-31T02:00:30;19.50;99.90
4910;DHT22;2470;49.868;8.660;2023-07-31T02:02:56;19.50;99.90
4910;DHT22;2470;49.868;8.660;2023-07-31T02:05:21;19.50;99.90
4910;DHT22;2470;49.868;8.660;2023-07-31T02:07:47;19.60;99.90
4910;DHT22;2470;49.868;8.660;2023-07-31T02:10:13;19.50;99.90
4910;DHT22;2470;49.868;8.660;2023-07-31T02:12:38;19.50;99.90
4910;DHT22;2470;49.868;8.660;2023-07-31T02:15:04;19.60;99.90
4910;DHT22;2470;49.868;8.660;2023-07-31T02:17:29;19.50;99.90
4910;DHT22;2470;49.868;8.660;2023-07-31T02:19:55;19.50;99.90
4910;DHT22;2470;49.868;8.660;2023-07-31T02:22:20;19.50;99.90
4910;DHT22;2470;49.868;8.660;2023-07-31T02:24:46;19.40;99.90
4910;DHT22;2470;49.868;8.660;2023-07-31T02:27:12;19.40;99.90
4910;DHT22;2470;49.868;8.660;2023-07-31T02:29:37;19.40;99.90
4910;DHT22;2470;49.868;8.660;2023-07-31T02:32:03;19.40;99.90
4910;DHT22;2470;49.868;8.660;2023-07-31T02:34:31;19.40;99.90
4910;DHT22;2470;49.868;8.660;2023-07-31T02:36:57;19.40;99.90
4910;DHT22;2470;49.868;8.660;2023-07-31T02:39:22;19.40;99.90
4910;DHT22;2470;49.868;8.660;2023-07-31T02:41:48;19.30;99.90
4910;DHT22;2470;49.868;8.660;2023-07-31T02:44:13;19.30;99.90
4910;DHT22;2470;49.868;8.660;2023-07-31T02:46:40;19.30;99.90
4910;DHT22;2470;49.868;8.660;2023-07-31T02:49:05;19.30;99.90
4910;DHT22;2470;49.868;8.660;2023-07-31T02:51:31;19.20;99.90
4910;DHT22;2470;49.868;8.660;2023-07-31T02:53:56;19.30;99.90
4910;DHT22;2470;49.868;8.660;2023-07-31T02:56:22;19.20;99.90
4910;DHT22;2470;49.868;8.660;2023-07-31T02:58:47;19.20;99.90
4910;DHT22;2470;49.868;8.660;2023-07-31T03:01:13;19.20;99.90
4910;DHT22;2470;49.868;8.660;2023-07-31T03:03:38;19.20;99.90
4910;DHT22;2470;49.868;8.660;2023-07-31T03:06:04;19.20;99.90
4910;DHT22;2470;49.868;8.660;2023-07-31T03:08:29;19.20;99.90
4910;DHT22;2470;49.868;8.660;2023-07-31T03:10:56;19.20;99.90
4910;DHT22;2470;49.868;8.660;2023-07-31T03:13:22;19.10;99.90
4910;DHT22;2470;49.868;8.660;2023-07-31T03:15:47;19.10;99.90
4910;DHT22;2470;49.868;8.660;2023-07-31T03:18:13;19.10;99.90
4910;DHT22;2470;49.868;8.660;2023-07-31T03:20:42;19.00;99.90
4910;DHT22;2470;49.868;8.660;2023-07-31T03:23:09;19.10;99.90
4910;DHT22;2470;49.868;8.660;2023-07-31T03:25:34;19.10;99.90
4910;DHT22;2470;49.868;8.660;2023-07-31T03:28:00;19.10;99.90
4910;DHT22;2470;49.868;8.660;2023-07-31T03:30:26;19.00;99.90
4910;DHT22;2470;49.868;8.660;2023-07-31T03:32:52;19.00;99.90
4910;DHT22;2470;49.868;8.660;2023-07-31T03:35:17;19.00;99.90
4910;DHT22;2470;49.868;8.660;2023-07-31T03:37:43;19.00;99.90
4910;DHT22;2470;49.868;8.660;2023-07-31T03:40:09;19.00;99.90
4910;DHT22;2470;49.868;8.660;2023-07-31T03:42:34;19.00;99.90
4910;DHT22;2470;49.868;8.660;2023-07-31T03:45:00;18.90;99.90
4910;DHT22;2470;49.868;8.660;2023-07-31T03:47:26;18.90;99.90
4910;DHT22;2470;49.868;8.660;2023-07-31T03:49:51;18.80;99.90
4910;DHT22;2470;49.868;8.660;2023-07-31T03:52:17;18.80;99.90
4910;DHT22;2470;49.868;8.660;2023-07-31T03:54:42;18.90;99.90
4910;DHT22;2470;49.868;8.660;2023-07-31T03:57:10;18.80;99.90
4910;DHT22;2470;49.868;8.660;2023-07-31T03:59:35;18.80;99.90
4910;DHT22;2470;49.868;8.660;2023-07-31T04:02:01;18.80;99.90
4910;DHT22;2470;49.868;8.660;2023-07-31T04:04:26;18.70;99.90
4910;DHT22;2470;49.868;8.660;2023-07-31T04:06:52;18.60;99.90
4910;DHT22;2470;49.868;8.660;2023-07-31T04:09:17;18.60;99.90
4910;DHT22;2470;49.868;8.660;2023-07-31T04:11:43;18.60;99.90
4910;DHT22;2470;49.868;8.660;2023-07-31T04:14:08;18.60;99.90
4910;DHT22;2470;49.868;8.660;2023-07-31T04:16:34;18.50;99.90
4910;DHT22;2470;49.868;8.660;2023-07-31T04:19:00;18.50;99.90
4910;DHT22;2470;49.868;8.660;2023-07-31T04:21:25;18.50;99.90
4910;DHT22;2470;49.868;8.660;2023-07-31T04:23:51;18.50;99.90
4910;DHT22;2470;49.868;8.660;2023-07-31T04:26:16;18.60;99.90
4910;DHT22;2470;49.868;8.660;2023-07-31T04:28:42;18.60;99.90
4910;DHT22;2470;49.868;8.660;2023-07-31T04:31:07;18.60;99.90
4910;DHT22;2470;49.868;8.660;2023-07-31T04:33:34;18.60;99.90
4910;DHT22;2470;49.868;8.660;2023-07-31T04:35:59;18.60;99.90
4910;DHT22;2470;49.868;8.660;2023-07-31T04:38:25;18.60;99.90
4910;DHT22;2470;49.868;8.660;2023-07-31T04:40:50;18.60;99.90
4910;DHT22;2470;49.868;8.660;2023-07-31T04:43:16;18.60;99.90
4910;DHT22;2470;49.868;8.660;2023-07-31T04:45:48;18.60;99.90
4910;DHT22;2470;49.868;8.660;2023-07-31T04:48:14;18.60;99.90
4910;DHT22;2470;49.868;8.660;2023-07-31T04:50:39;18.60;99.90
4910;DHT22;2470;49.868;8.660;2023-07-31T04:53:05;18.60;99.90
4910;DHT22;2470;49.868;8.660;2023-07-31T04:55:31;18.70;99.90
4910;DHT22;2470;49.868;8.660;2023-07-31T04:57:58;18.70;99.90
4910;DHT22;2470;49.868;8.660;2023-07-31T05:00:24;18.70;99.90
4910;DHT22;2470;49.868;8.660;2023-07-31T05:02:49;18.70;99.90
4910;DHT22;2470;49.868;8.660;2023-07-31T05:05:15;18.70;99.90
4910;DHT22;2470;49.868;8.660;2023-07-31T05:07:40;18.60;99.90
4910;DHT22;2470;49.868;8.660;2023-07-31T05:10:06;18.70;99.90
4910;DHT22;2470;49.868;8.660;2023-07-31T05:12:31;18.60;99.90
4910;DHT22;2470;49.868;8.660;2023-07-31T05:14:57;18.70;99.90
4910;DHT22;2470;49.868;8.660;2023-07-31T05:17:22;18.70;99.90
4910;DHT22;2470;49.868;8.660;2023-07-31T05:19:48;18.70;99.90
4910;DHT22;2470;49.868;8.660;2023-07-31T05:22:13;18.70;99.90
4910;DHT22;2470;49.868;8.660;2023-07-31T05:24:39;18.70;99.90
4910;DHT22;2470;49.868;8.660;2023-07-31T05:27:05;18.80;99.90
4910;DHT22;2470;49.868;8.660;2023-07-31T05:29:30;18.80;99.90
4910;DHT22;2470;49.868;8.660;2023-07-31T05:31:56;18.90;99.90
4910;DHT22;2470;49.868;8.660;2023-07-31T05:34:21;18.90;99.90
4910;DHT22;2470;49.868;8.660;2023-07-31T05:36:50;18.90;99.90
4910;DHT22;2470;49.868;8.660;2023-07-31T05:39:15;18.90;99.90
4910;DHT22;2470;49.868;8.660;2023-07-31T05:41:41;19.00;99.90
4910;DHT22;2470;49.868;8.660;2023-07-31T05:44:06;19.00;99.90
4910;DHT22;2470;49.868;8.660;2023-07-31T05:46:32;19.10;99.90
4910;DHT22;2470;49.868;8.660;2023-07-31T05:48:58;19.10;99.90
4910;DHT22;2470;49.868;8.660;2023-07-31T05:51:26;19.10;99.90
4910;DHT22;2470;49.868;8.660;2023-07-31T05:53:52;19.10;99.90
4910;DHT22;2470;49.868;8.660;2023-07-31T05:56:17;19.10;99.90
4910;DHT22;2470;49.868;8.660;2023-07-31T05:58:42;19.00;99.90
4910;DHT22;2470;49.868;8.660;2023-07-31T06:01:08;19.10;99.90
4910;DHT22;2470;49.868;8.660;2023-07-31T06:03:33;19.10;99.90
4910;DHT22;2470;49.868;8.660;2023-07-31T06:05:59;19.10;99.90
4910;DHT22;2470;49.868;8.660;2023-07-31T06:08:25;19.10;99.90
4910;DHT22;2470;49.868;8.660;2023-07-31T06:10:50;19.10;99.90
4910;DHT22;2470;49.868;8.660;2023-07-31T06:13:16;19.10;99.90
4910;DHT22;2470;49.868;8.660;2023-07-31T06:15:41;19.20;99.90
4910;DHT22;2470;49.868;8.660;2023-07-31T06:18:07;19.30;99.90
4910;DHT22;2470;49.868;8.660;2023-07-31T06:20:34;19.30;99.90
4910;DHT22;2470;49.868;8.660;2023-07-31T06:22:59;19.40;99.90
4910;DHT22;2470;49.868;8.660;2023-07-31T06:25:25;19.50;99.90
4910;DHT22;2470;49.868;8.660;2023-07-31T06:27:50;19.50;99.90
4910;DHT22;2470;49.868;8.660;2023-07-31T06:30:16;19.50;99.90
4910;DHT22;2470;49.868;8.660;2023-07-31T06:32:42;19.60;99.90
4910;DHT22;2470;49.868;8.660;2023-07-31T06:35:08;19.70;99.90
4910;DHT22;2470;49.868;8.660;2023-07-31T06:37:33;19.80;99.90
4910;DHT22;2470;49.868;8.660;2023-07-31T06:39:59;19.80;99.90
4910;DHT22;2470;49.868;8.660;2023-07-31T06:42:24;19.90;99.90
4910;DHT22;2470;49.868;8.660;2023-07-31T06:44:50;19.90;99.90
4910;DHT22;2470;49.868;8.660;2023-07-31T06:47:16;19.90;99.90
4910;DHT22;2470;49.868;8.660;2023-07-31T06:49:41;19.90;99.90
4910;DHT22;2470;49.868;8.660;2023-07-31T06:52:07;19.90;99.90
4910;DHT22;2470;49.868;8.660;2023-07-31T06:54:33;20.00;99.90
4910;DHT22;2470;49.868;8.660;2023-07-31T06:56:59;20.20;99.90
4910;DHT22;2470;49.868;8.660;2023-07-31T06:59:25;20.20;99.90
4910;DHT22;2470;49.868;8.660;2023-07-31T07:01:50;20.20;99.90
4910;DHT22;2470;49.868;8.660;2023-07-31T07:04:16;20.20;99.90
4910;DHT22;2470;49.868;8.660;2023-07-31T07:06:41;20.20;99.90
4910;DHT22;2470;49.868;8.660;2023-07-31T07:09:07;20.10;99.90
4910;DHT22;2470;49.868;8.660;2023-07-31T07:11:33;20.10;99.90
4910;DHT22;2470;49.868;8.660;2023-07-31T07:13:59;20.00;99.90
4910;DHT22;2470;49.868;8.660;2023-07-31T07:16:25;20.10;99.90
4910;DHT22;2470;49.868;8.660;2023-07-31T07:18:51;20.30;99.90
4910;DHT22;2470;49.868;8.660;2023-07-31T07:21:16;20.50;99.90
4910;DHT22;2470;49.868;8.660;2023-07-31T07:23:43;20.60;99.90
4910;DHT22;2470;49.868;8.660;2023-07-31T07:26:09;20.70;99.90
4910;DHT22;2470;49.868;8.660;2023-07-31T07:28:34;20.80;99.90
4910;DHT22;2470;49.868;8.660;2023-07-31T07:31:00;20.80;99.90
4910;DHT22;2470;49.868;8.660;2023-07-31T07:33:25;20.80;99.90
4910;DHT22;2470;49.868;8.660;2023-07-31T07:35:51;20.70;99.90
4910;DHT22;2470;49.868;8.660;2023-07-31T07:38:16;20.70;99.90
4910;DHT22;2470;49.868;8.660;2023-07-31T07:40:42;20.70;99.90
4910;DHT22;2470;49.868;8.660;2023-07-31T07:43:07;20.70;99.90
4910;DHT22;2470;49.868;8.660;2023-07-31T07:45:33;20.70;99.90
4910;DHT22;2470;49.868;8.660;2023-07-31T07:47:59;20.70;99.90
4910;DHT22;2470;49.868;8.660;2023-07-31T07:50:24;20.70;99.90
4910;DHT22;2470;49.868;8.660;2023-07-31T07:52:50;20.80;99.90
4910;DHT22;2470;49.868;8.660;2023-07-31T07:55:15;20.80;99.90
4910;DHT22;2470;49.868;8.660;2023-07-31T07:57:41;20.80;99.90
4910;DHT22;2470;49.868;8.660;2023-07-31T08:00:07;20.80;99.90
4910;DHT22;2470;49.868;8.660;2023-07-31T08:02:32;20.80;99.90
4910;DHT22;2470;49.868;8.660;2023-07-31T08:04:58;20.80;99.90
4910;DHT22;2470;49.868;8.660;2023-07-31T08:07:23;20.90;99.90
4910;DHT22;2470;49.868;8.660;2023-07-31T08:09:49;21.00;99.90
4910;DHT22;2470;49.868;8.660;2023-07-31T08:12:14;21.10;99.90
4910;DHT22;2470;49.868;8.660;2023-07-31T08:14:40;21.20;99.90
4910;DHT22;2470;49.868;8.660;2023-07-31T08:17:05;21.40;99.90
4910;DHT22;2470;49.868;8.660;2023-07-31T08:19:31;21.30;99.90
4910;DHT22;2470;49.868;8.660;2023-07-31T08:21:57;21.20;99.90
4910;DHT22;2470;49.868;8.660;2023-07-31T08:24:22;21.10;99.90
4910;DHT22;2470;49.868;8.660;2023-07-31T08:26:48;21.00;99.90
4910;DHT22;2470;49.868;8.660;2023-07-31T08:29:13;20.90;99.90
4910;DHT22;2470;49.868;8.660;2023-07-31T08:31:39;20.80;99.90
4910;DHT22;2470;49.868;8.660;2023-07-31T08:34:04;20.90;99.90
4910;DHT22;2470;49.868;8.660;2023-07-31T08:36:30;21.10;99.90
4910;DHT22;2470;49.868;8.660;2023-07-31T08:38:55;21.40;99.90
4910;DHT22;2470;49.868;8.660;2023-07-31T08:41:21;21.50;99.90
4910;DHT22;2470;49.868;8.660;2023-07-31T08:43:47;21.70;99.90
4910;DHT22;2470;49.868;8.660;2023-07-31T08:46:12;21.90;99.90
4910;DHT22;2470;49.868;8.660;2023-07-31T08:48:41;22.00;99.90
4910;DHT22;2470;49.868;8.660;2023-07-31T08:51:07;22.00;99.90
4910;DHT22;2470;49.868;8.660;2023-07-31T08:53:33;22.00;99.90
4910;DHT22;2470;49.868;8.660;2023-07-31T08:55:59;22.00;99.90
4910;DHT22;2470;49.868;8.660;2023-07-31T08:58:25;22.10;99.90
4910;DHT22;2470;49.868;8.660;2023-07-31T09:00:53;22.20;99.90
4910;DHT22;2470;49.868;8.660;2023-07-31T09:03:23;22.20;99.90
4910;DHT22;2470;49.868;8.660;2023-07-31T09:05:50;22.30;99.90
4910;DHT22;2470;49.868;8.660;2023-07-31T09:08:19;22.40;99.90
4910;DHT22;2470;49.868;8.660;2023-07-31T09:10:46;22.40;99.90
4910;DHT22;2470;49.868;8.660;2023-07-31T09:13:13;22.40;99.90
4910;DHT22;2470;49.868;8.660;2023-07-31T09:15:39;22.40;99.90
4910;DHT22;2470;49.868;8.660;2023-07-31T09:18:06;22.60;99.90
4910;DHT22;2470;49.868;8.660;2023-07-31T09:20:33;22.80;99.90
4910;DHT22;2470;49.868;8.660;2023-07-31T09:25:32;23.00;99.90
4910;DHT22;2470;49.868;8.660;2023-07-31T09:27:59;22.90;99.60
4910;DHT22;2470;49.868;8.660;2023-07-31T09:30:25;22.80;99.60
4910;DHT22;2470;49.868;8.660;2023-07-31T09:32:59;22.70;99.70
4910;DHT22;2470;49.868;8.660;2023-07-31T09:35:32;22.70;99.60
4910;DHT22;2470;49.868;8.660;2023-07-31T09:38:01;22.90;99.50
4910;DHT22;2470;49.868;8.660;2023-07-31T09:40:29;23.10;98.80
4910;DHT22;2470;49.868;8.660;2023-07-31T09:43:00;23.00;98.50
4910;DHT22;2470;49.868;8.660;2023-07-31T09:45:26;23.00;98.40
4910;DHT22;2470;49.868;8.660;2023-07-31T09:47:53;23.00;98.70
4910;DHT22;2470;49.868;8.660;2023-07-31T09:50:21;23.00;98.80
4910;DHT22;2470;49.868;8.660;2023-07-31T09:52:47;23.10;97.80
4910;DHT22;2470;49.868;8.660;2023-07-31T09:55:13;23.10;96.90
4910;DHT22;2470;49.868;8.660;2023-07-31T09:57:45;23.00;96.90
4910;DHT22;2470;49.868;8.660;2023-07-31T10:00:12;23.00;96.60
4910;DHT22;2470;49.868;8.660;2023-07-31T10:02:38;22.90;96.90
4910;DHT22;2470;49.868;8.660;2023-07-31T10:05:06;22.90;97.30
4910;DHT22;2470;49.868;8.660;2023-07-31T10:07:37;22.90;96.90
4910;DHT22;2470;49.868;8.660;2023-07-31T10:10:05;22.90;96.60
4910;DHT22;2470;49.868;8.660;2023-07-31T10:12:32;23.00;96.60
4910;DHT22;2470;49.868;8.660;2023-07-31T10:14:59;23.10;96.50
4910;DHT22;2470;49.868;8.660;2023-07-31T10:17:26;23.20;96.60
4910;DHT22;2470;49.868;8.660;2023-07-31T10:19:53;23.20;96.90
4910;DHT22;2470;49.868;8.660;2023-07-31T10:22:20;23.30;96.60
4910;DHT22;2470;49.868;8.660;2023-07-31T10:24:48;23.40;96.70
4910;DHT22;2470;49.868;8.660;2023-07-31T10:27:15;23.40;96.60
4910;DHT22;2470;49.868;8.660;2023-07-31T10:29:43;23.40;96.90
4910;DHT22;2470;49.868;8.660;2023-07-31T10:32:09;23.50;97.30
4910;DHT22;2470;49.868;8.660;2023-07-31T10:34:39;23.50;97.00
4910;DHT22;2470;49.868;8.660;2023-07-31T10:37:30;23.60;96.80
4910;DHT22;2470;49.868;8.660;2023-07-31T10:42:36;23.50;96.40
4910;DHT22;2470;49.868;8.660;2023-07-31T10:45:06;23.50;96.70
4910;DHT22;2470;49.868;8.660;2023-07-31T10:47:58;23.50;96.10
4910;DHT22;2470;49.868;8.660;2023-07-31T10:50:25;23.50;95.20
4910;DHT22;2470;49.868;8.660;2023-07-31T10:52:53;23.50;94.90
4910;DHT22;2470;49.868;8.660;2023-07-31T10:55:25;23.70;95.50
4910;DHT22;2470;49.868;8.660;2023-07-31T10:57:51;23.90;94.90
4910;DHT22;2470;49.868;8.660;2023-07-31T11:00:27;24.00;94.50
4910;DHT22;2470;49.868;8.660;2023-07-31T11:03:01;24.20;93.30
4910;DHT22;2470;49.868;8.660;2023-07-31T11:05:46;24.10;93.60
4910;DHT22;2470;49.868;8.660;2023-07-31T11:08:20;24.10;93.50
4910;DHT22;2470;49.868;8.660;2023-07-31T11:10:48;24.20;93.40
4910;DHT22;2470;49.868;8.660;2023-07-31T11:13:14;24.10;92.80
4910;DHT22;2470;49.868;8.660;2023-07-31T11:15:40;23.90;92.50
4910;DHT22;2470;49.868;8.660;2023-07-31T11:18:05;23.70;92.40
4910;DHT22;2470;49.868;8.660;2023-07-31T11:20:34;23.60;93.00
4910;DHT22;2470;49.868;8.660;2023-07-31T11:23:06;23.40;93.20
4910;DHT22;2470;49.868;8.660;2023-07-31T11:25:32;23.10;93.80
4910;DHT22;2470;49.868;8.660;2023-07-31T11:28:06;23.10;94.50
4910;DHT22;2470;49.868;8.660;2023-07-31T11:30:32;23.00;94.50
4910;DHT22;2470;49.868;8.660;2023-07-31T11:32:59;22.90;94.90
4910;DHT22;2470;49.868;8.660;2023-07-31T11:35:24;22.80;94.80
4910;DHT22;2470;49.868;8.660;2023-07-31T11:37:50;22.90;95.20
4910;DHT22;2470;49.868;8.660;2023-07-31T11:40:16;22.90;95.00
4910;DHT22;2470;49.868;8.660;2023-07-31T11:42:42;23.00;95.40
4910;DHT22;2470;49.868;8.660;2023-07-31T11:45:08;23.10;95.50
4910;DHT22;2470;49.868;8.660;2023-07-31T11:47:36;23.20;95.40
4910;DHT22;2470;49.868;8.660;2023-07-31T11:50:03;23.20;94.80
4910;DHT22;2470;49.868;8.660;2023-07-31T11:52:34;23.20;95.10
4910;DHT22;2470;49.868;8.660;2023-07-31T11:55:00;23.10;95.10
4910;DHT22;2470;49.868;8.660;2023-07-31T11:57:27;23.10;95.30
4910;DHT22;2470;49.868;8.660;2023-07-31T11:59:54;23.00;95.40
4910;DHT22;2470;49.868;8.660;2023-07-31T12:02:20;22.90;95.70
4910;DHT22;2470;49.868;8.660;2023-07-31T12:04:46;22.90;96.00
4910;DHT22;2470;49.868;8.660;2023-07-31T12:07:12;22.90;96.30
4910;DHT22;2470;49.868;8.660;2023-07-31T12:09:38;23.00;96.10
4910;DHT22;2470;49.868;8.660;2023-07-31T12:12:08;23.20;96.00
4910;DHT22;2470;49.868;8.660;2023-07-31T12:14:33;23.40;96.40
4910;DHT22;2470;49.868;8.660;2023-07-31T12:17:01;23.60;96.10
4910;DHT22;2470;49.868;8.660;2023-07-31T12:19:29;23.70;96.00
4910;DHT22;2470;49.868;8.660;2023-07-31T12:22:01;23.80;96.00
4910;DHT22;2470;49.868;8.660;2023-07-31T12:24:27;23.90;96.00
4910;DHT22;2470;49.868;8.660;2023-07-31T12:26:52;23.90;95.80
4910;DHT22;2470;49.868;8.660;2023-07-31T12:29:18;23.70;95.70
4910;DHT22;2470;49.868;8.660;2023-07-31T12:31:44;23.50;95.80
4910;DHT22;2470;49.868;8.660;2023-07-31T12:34:16;23.30;96.30
4910;DHT22;2470;49.868;8.660;2023-07-31T12:36:46;23.00;96.60
4910;DHT22;2470;49.868;8.660;2023-07-31T12:39:14;22.80;96.70
4910;DHT22;2470;49.868;8.660;2023-07-31T12:41:40;22.70;97.00
4910;DHT22;2470;49.868;8.660;2023-07-31T12:44:05;22.70;97.20
4910;DHT22;2470;49.868;8.660;2023-07-31T12:46:31;22.60;97.40
4910;DHT22;2470;49.868;8.660;2023-07-31T12:48:57;22.60;97.10
4910;DHT22;2470;49.868;8.660;2023-07-31T12:51:22;22.50;97.30
4910;DHT22;2470;49.868;8.660;2023-07-31T12:53:48;22.50;96.70
4910;DHT22;2470;49.868;8.660;2023-07-31T12:56:13;22.50;96.80
4910;DHT22;2470;49.868;8.660;2023-07-31T12:58:39;22.50;97.00
4910;DHT22;2470;49.868;8.660;2023-07-31T13:01:04;22.50;96.90
4910;DHT22;2470;49.868;8.660;2023-07-31T13:03:31;22.50;97.00
4910;DHT22;2470;49.868;8.660;2023-07-31T13:05:56;22.50;97.20
4910;DHT22;2470;49.868;8.660;2023-07-31T13:08:22;22.60;96.90
4910;DHT22;2470;49.868;8.660;2023-07-31T13:10:47;22.70;96.70
4910;DHT22;2470;49.868;8.660;2023-07-31T13:13:13;22.70;97.00
4910;DHT22;2470;49.868;8.660;2023-07-31T13:15:38;22.70;96.90
4910;DHT22;2470;49.868;8.660;2023-07-31T13:18:04;22.80;96.80
4910;DHT22;2470;49.868;8.660;2023-07-31T13:20:29;22.90;96.50
4910;DHT22;2470;49.868;8.660;2023-07-31T13:22:55;22.90;96.50
4910;DHT22;2470;49.868;8.660;2023-07-31T13:25:20;23.00;96.60
4910;DHT22;2470;49.868;8.660;2023-07-31T13:27:46;23.10;96.60
4910;DHT22;2470;49.868;8.660;2023-07-31T13:30:11;23.30;96.30
4910;DHT22;2470;49.868;8.660;2023-07-31T13:32:37;23.60;95.60
4910;DHT22;2470;49.868;8.660;2023-07-31T13:35:07;23.60;94.60
4910;DHT22;2470;49.868;8.660;2023-07-31T13:37:33;23.50;94.60
4910;DHT22;2470;49.868;8.660;2023-07-31T13:39:58;23.30;95.20
4910;DHT22;2470;49.868;8.660;2023-07-31T13:42:24;23.20;94.80
4910;DHT22;2470;49.868;8.660;2023-07-31T13:44:49;23.20;95.10
4910;DHT22;2470;49.868;8.660;2023-07-31T13:47:15;23.10;95.50
4910;DHT22;2470;49.868;8.660;2023-07-31T13:49:40;23.10;95.50
4910;DHT22;2470;49.868;8.660;2023-07-31T13:52:08;23.10;95.40
4910;DHT22;2470;49.868;8.660;2023-07-31T13:54:34;23.10;95.50
4910;DHT22;2470;49.868;8.660;2023-07-31T13:57:00;23.00;95.90
4910;DHT22;2470;49.868;8.660;2023-07-31T13:59:25;23.00;96.00
4910;DHT22;2470;49.868;8.660;2023-07-31T14:01:51;22.90;96.10
4910;DHT22;2470;49.868;8.660;2023-07-31T14:04:16;22.90;96.30
4910;DHT22;2470;49.868;8.660;2023-07-31T14:06:43;22.80;96.60
4910;DHT22;2470;49.868;8.660;2023-07-31T14:09:08;22.80;96.80
4910;DHT22;2470;49.868;8.660;2023-07-31T14:11:34;22.80;97.00
4910;DHT22;2470;49.868;8.660;2023-07-31T14:14:00;22.80;97.00
4910;DHT22;2470;49.868;8.660;2023-07-31T14:16:27;22.80;96.90
4910;DHT22;2470;49.868;8.660;2023-07-31T14:18:52;22.90;97.00
4910;DHT22;2470;49.868;8.660;2023-07-31T14:21:19;22.90;97.10
4910;DHT22;2470;49.868;8.660;2023-07-31T14:23:44;22.90;97.10
4910;DHT22;2470;49.868;8.660;2023-07-31T14:26:10;22.90;97.10
4910;DHT22;2470;49.868;8.660;2023-07-31T14:28:36;22.80;97.40
4910;DHT22;2470;49.868;8.660;2023-07-31T14:31:01;22.70;97.90
4910;DHT22;2470;49.868;8.660;2023-07-31T14:33:27;22.70;97.90
4910;DHT22;2470;49.868;8.660;2023-07-31T14:35:52;22.70;97.70
4910;DHT22;2470;49.868;8.660;2023-07-31T14:38:18;22.60;97.70
4910;DHT22;2470;49.868;8.660;2023-07-31T14:40:43;22.70;97.90
4910;DHT22;2470;49.868;8.660;2023-07-31T14:43:09;22.60;98.10
4910;DHT22;2470;49.868;8.660;2023-07-31T14:45:37;22.60;98.10
4910;DHT22;2470;49.868;8.660;2023-07-31T14:48:02;22.60;97.70
4910;DHT22;2470;49.868;8.660;2023-07-31T14:50:28;22.60;97.50
4910;DHT22;2470;49.868;8.660;2023-07-31T14:52:54;22.60;97.70
4910;DHT22;2470;49.868;8.660;2023-07-31T14:55:20;22.60;97.80
4910;DHT22;2470;49.868;8.660;2023-07-31T14:57:45;22.60;97.40
4910;DHT22;2470;49.868;8.660;2023-07-31T15:00:11;22.60;97.40
4910;DHT22;2470;49.868;8.660;2023-07-31T15:02:37;22.60;97.60
4910;DHT22;2470;49.868;8.660;2023-07-31T15:05:04;22.60;97.80
4910;DHT22;2470;49.868;8.660;2023-07-31T15:07:29;22.60;97.70
4910;DHT22;2470;49.868;8.660;2023-07-31T15:09:55;22.60;97.90
4910;DHT22;2470;49.868;8.660;2023-07-31T15:12:20;22.60;98.00
4910;DHT22;2470;49.868;8.660;2023-07-31T15:14:47;22.50;98.10
4910;DHT22;2470;49.868;8.660;2023-07-31T15:17:13;22.50;98.10
4910;DHT22;2470;49.868;8.660;2023-07-31T15:19:38;22.50;97.90
4910;DHT22;2470;49.868;8.660;2023-07-31T15:22:04;22.50;98.00
4910;DHT22;2470;49.868;8.660;2023-07-31T15:24:29;22.50;98.00
4910;DHT22;2470;49.868;8.660;2023-07-31T15:26:55;22.40;98.30
4910;DHT22;2470;49.868;8.660;2023-07-31T15:29:21;22.50;98.50
4910;DHT22;2470;49.868;8.660;2023-07-31T15:31:47;22.50;98.60
4910;DHT22;2470;49.868;8.660;2023-07-31T15:34:13;22.50;98.50
4910;DHT22;2470;49.868;8.660;2023-07-31T15:36:39;22.60;98.60
4910;DHT22;2470;49.868;8.660;2023-07-31T15:39:04;22.60;98.30
4910;DHT22;2470;49.868;8.660;2023-07-31T15:41:30;22.60;98.60
4910;DHT22;2470;49.868;8.660;2023-07-31T15:43:56;22.60;98.60
4910;DHT22;2470;49.868;8.660;2023-07-31T15:46:22;22.50;98.50
4910;DHT22;2470;49.868;8.660;2023-07-31T15:48:47;22.50;98.80
4910;DHT22;2470;49.868;8.660;2023-07-31T15:51:13;22.40;98.90
4910;DHT22;2470;49.868;8.660;2023-07-31T15:53:39;22.40;98.60
4910;DHT22;2470;49.868;8.660;2023-07-31T15:56:05;22.50;97.80
4910;DHT22;2470;49.868;8.660;2023-07-31T15:58:31;22.40;98.00
4910;DHT22;2470;49.868;8.660;2023-07-31T16:00:56;22.50;97.80
4910;DHT22;2470;49.868;8.660;2023-07-31T16:03:23;22.50;97.10
4910;DHT22;2470;49.868;8.660;2023-07-31T16:05:48;22.50;96.90
4910;DHT22;2470;49.868;8.660;2023-07-31T16:08:14;22.60;97.20
4910;DHT22;2470;49.868;8.660;2023-07-31T16:10:40;22.60;96.90